Time;durP1;ratioP1;P1;durP2;ratioP2;P2;SDS_P1;SDS_P2;PMS_P1;PMS_P2;Temp;Humidity;BMP_temperature;BMP_pressure;BME280_temperature;BME280_humidity;BME280_pressure;Samples;Min_cycle;Max_cycle;Signal;HPM_P1;HPM_P2
2023/06/19 00:01:18;;;;;;;7.30;6.53;;;;;;;21.71;97.54;101254.22;5064746;28;20229;-73
2023/06/19 00:03:43;;;;;;;7.63;6.83;;;;;;;21.70;97.20;101248.13;5066952;28;20221;-72
2023/06/19 00:06:08;;;;;;;8.57;6.67;;;;;;;21.67;98.46;101258.59;5063771;28;20188;-72
2023/06/19 00:08:35;;;;;;;8.30;7.13;;;;;;;21.67;98.21;101256.00;5067541;28;20220;-72
2023/06/19 00:11:00;;;;;;;7.33;6.63;;;;;;;21.65;97.76;101244.72;5068778;28;20223;-73
2023/06/19 00:13:26;;;;;;;6.87;6.23;;;;;;;21.69;96.28;101240.34;5060154;28;20730;-72
2023/06/19 00:15:51;;;;;;;8.27;7.33;;;;;;;21.64;98.51;101247.34;5064944;28;20717;-70
2023/06/19 00:18:19;;;;;;;7.70;6.90;;;;;;;21.66;98.37;101251.66;5064065;28;20199;-69
2023/06/19 00:20:46;;;;;;;7.80;7.00;;;;;;;21.66;99.53;101250.81;5065369;28;20276;-72
2023/06/19 00:23:13;;;;;;;7.90;7.20;;;;;;;21.63;100.00;101253.47;5059006;28;20853;-71
2023/06/19 00:25:40;;;;;;;7.70;7.00;;;;;;;21.62;100.00;101267.38;5067020;28;20604;-73
2023/06/19 00:28:11;;;;;;;8.33;7.53;;;;;;;21.57;100.00;101275.31;5063618;28;20292;-71
2023/06/19 00:30:37;;;;;;;10.80;7.23;;;;;;;21.56;100.00;101270.97;5083929;28;20196;-70
2023/06/19 00:33:03;;;;;;;8.17;7.37;;;;;;;21.53;100.00;101278.84;5063604;28;20283;-71
2023/06/19 00:35:28;;;;;;;8.40;7.33;;;;;;;21.50;100.00;101278.91;5062453;28;20292;-71
2023/06/19 00:37:53;;;;;;;7.37;6.67;;;;;;;21.50;100.00;101281.50;5064814;28;20802;-71
2023/06/19 00:40:30;;;;;;;8.33;7.20;;;;;;;21.49;100.00;101277.19;5063370;28;20661;-72
2023/06/19 00:42:57;;;;;;;7.13;6.50;;;;;;;21.49;100.00;101268.50;5061480;28;20197;-69
2023/06/19 00:45:24;;;;;;;8.10;7.30;;;;;;;21.46;100.00;101269.41;5060578;28;20215;-69
2023/06/19 00:47:54;;;;;;;8.43;7.53;;;;;;;21.45;100.00;101272.03;5062865;28;20197;-70
2023/06/19 00:50:21;;;;;;;8.43;7.20;;;;;;;21.47;100.00;101262.47;5061918;28;20270;-70
2023/06/19 00:52:47;;;;;;;9.20;7.27;;;;;;;21.46;100.00;101260.75;5064969;28;20572;-70
2023/06/19 00:55:13;;;;;;;8.43;7.63;;;;;;;21.46;100.00;101259.00;5065727;28;20209;-71
2023/06/19 00:57:39;;;;;;;8.93;7.60;;;;;;;21.42;100.00;101265.16;5058512;28;20607;-69
2023/06/19 01:00:07;;;;;;;7.70;7.00;;;;;;;21.40;100.00;101271.28;5067330;28;20197;-70
2023/06/19 01:02:33;;;;;;;8.37;7.57;;;;;;;21.38;100.00;101280.88;5040057;28;20197;-71
2023/06/19 01:05:00;;;;;;;9.07;7.43;;;;;;;21.36;100.00;101291.31;5063731;28;20341;-71
2023/06/19 01:07:32;;;;;;;8.53;7.63;;;;;;;21.38;100.00;101280.88;5058648;28;20182;-70
2023/06/19 01:10:05;;;;;;;11.63;7.97;;;;;;;21.34;100.00;101266.19;5066869;28;20240;-71
2023/06/19 01:12:37;;;;;;;9.03;7.63;;;;;;;21.33;100.00;101264.47;5063814;28;20199;-69
2023/06/19 01:15:05;;;;;;;9.10;8.20;;;;;;;21.31;100.00;101267.09;5064970;28;20307;-69
2023/06/19 01:17:31;;;;;;;10.37;8.30;;;;;;;21.29;100.00;101270.63;5061101;28;20196;-71
2023/06/19 01:19:58;;;;;;;9.57;7.97;;;;;;;21.32;100.00;101249.69;5079318;28;20188;-71
2023/06/19 01:22:31;;;;;;;8.40;7.60;;;;;;;21.31;100.00;101245.38;5065867;28;20200;-71
2023/06/19 01:24:59;;;;;;;8.60;7.70;;;;;;;21.28;100.00;101242.84;5063898;28;20212;-70
2023/06/19 01:27:29;;;;;;;8.13;7.30;;;;;;;21.27;100.00;101243.69;5065267;28;20204;-71
2023/06/19 01:29:56;;;;;;;9.23;7.67;;;;;;;21.23;100.00;101240.31;5061205;28;20738;-72
2023/06/19 01:32:56;;;;;;;8.60;7.70;;;;;;;21.24;100.00;101236.81;5061238;28;20196;-70
2023/06/19 01:35:26;;;;;;;9.13;8.33;;;;;;;21.24;100.00;101241.16;5061455;28;20258;-71
2023/06/19 01:37:53;;;;;;;8.27;7.40;;;;;;;21.21;100.00;101234.28;5064904;28;20283;-71
2023/06/19 01:40:21;;;;;;;7.87;7.13;;;;;;;21.21;100.00;101231.66;5064287;28;20720;-70
2023/06/19 01:42:48;;;;;;;8.37;7.57;;;;;;;21.19;100.00;101225.59;5078948;28;20276;-71
2023/06/19 01:45:13;;;;;;;10.97;8.07;;;;;;;21.19;100.00;101228.22;5045943;28;20242;-71
2023/06/19 01:47:39;;;;;;;8.57;7.77;;;;;;;21.19;100.00;101230.81;5061009;28;20300;-70
2023/06/19 01:50:05;;;;;;;9.37;8.23;;;;;;;21.19;100.00;101225.59;5063149;28;20252;-70
2023/06/19 01:52:31;;;;;;;9.07;8.27;;;;;;;21.20;100.00;101222.13;5061142;28;20185;-72
2023/06/19 01:54:57;;;;;;;9.93;8.27;;;;;;;21.17;100.00;101232.59;5061564;28;20548;-70
2023/06/19 01:57:22;;;;;;;8.87;7.97;;;;;;;21.18;100.00;101220.41;5061661;28;20230;-72
2023/06/19 01:59:47;;;;;;;8.63;7.67;;;;;;;21.17;100.00;101218.69;5060875;28;20204;-72
2023/06/19 02:02:13;;;;;;;8.30;7.50;;;;;;;21.09;100.00;101233.63;5061948;28;20200;-70
2023/06/19 02:04:39;;;;;;;9.73;7.63;;;;;;;21.11;100.00;101219.69;5061216;28;20209;-72
2023/06/19 02:07:04;;;;;;;8.70;7.87;;;;;;;21.06;100.00;101229.31;5064528;28;20347;-72
2023/06/19 02:09:30;;;;;;;8.50;7.80;;;;;;;21.09;100.00;101224.06;5065729;28;20571;-72
2023/06/19 02:11:55;;;;;;;9.60;8.20;;;;;;;21.08;100.00;101224.06;5065544;28;20660;-70
2023/06/19 02:14:21;;;;;;;9.00;8.20;;;;;;;21.02;100.00;101229.41;5057884;28;20756;-72
2023/06/19 02:16:47;;;;;;;8.93;8.03;;;;;;;21.00;100.00;101239.00;5059784;28;20200;-72
2023/06/19 02:19:12;;;;;;;8.93;8.03;;;;;;;21.01;100.00;101230.28;5060376;28;20201;-71
2023/06/19 02:21:38;;;;;;;9.70;8.70;;;;;;;20.97;100.00;101237.31;5060589;28;20249;-70
2023/06/19 02:24:05;;;;;;;9.00;7.57;;;;;;;20.94;100.00;101249.50;5048610;28;20592;-70
2023/06/19 02:26:31;;;;;;;8.53;7.70;;;;;;;20.91;100.00;101234.78;5064577;28;20196;-72
2023/06/19 02:28:56;;;;;;;9.00;8.20;;;;;;;20.89;100.00;101240.88;5064605;28;20209;-72
2023/06/19 02:31:23;;;;;;;9.03;8.13;;;;;;;20.90;100.00;101233.06;5084248;28;20249;-71
2023/06/19 02:33:48;;;;;;;9.20;8.20;;;;;;;20.88;100.00;101242.63;5065315;28;20709;-70
2023/06/19 02:36:19;;;;;;;9.33;8.10;;;;;;;20.91;100.00;101246.97;5065080;28;20201;-71
2023/06/19 02:38:48;;;;;;;9.57;8.57;;;;;;;20.90;100.00;101243.47;5064308;28;20240;-70
2023/06/19 02:41:14;;;;;;;10.63;8.80;;;;;;;20.89;100.00;101244.34;5067273;28;20266;-72
2023/06/19 02:43:41;;;;;;;9.73;8.83;;;;;;;20.87;100.00;101245.25;5064984;28;20671;-73
2023/06/19 02:46:07;;;;;;;9.47;8.57;;;;;;;20.86;100.00;101249.59;5063393;28;20185;-70
2023/06/19 02:48:33;;;;;;;9.70;8.80;;;;;;;20.83;100.00;101252.22;5062820;28;20221;-69
2023/06/19 02:50:59;;;;;;;9.53;8.57;;;;;;;20.83;100.00;101254.84;5068171;28;20653;-71
2023/06/19 02:53:24;;;;;;;10.97;8.50;;;;;;;20.81;100.00;101258.34;5066810;28;20205;-71
2023/06/19 02:55:50;;;;;;;9.80;8.80;;;;;;;20.82;100.00;101253.13;5079382;28;20269;-71
2023/06/19 02:58:15;;;;;;;9.63;8.83;;;;;;;20.80;100.00;101256.63;5066517;28;20224;-70
2023/06/19 03:00:41;;;;;;;11.73;8.67;;;;;;;20.81;100.00;101247.94;5059778;28;20584;-71
2023/06/19 03:03:06;;;;;;;10.97;8.73;;;;;;;20.79;100.00;101247.97;5066008;28;20673;-71
2023/06/19 03:05:32;;;;;;;10.33;8.57;;;;;;;20.78;100.00;101242.78;5063313;28;20924;-71
2023/06/19 03:07:57;;;;;;;9.03;8.23;;;;;;;20.76;100.00;101241.94;5067159;28;20828;-70
2023/06/19 03:10:22;;;;;;;10.03;9.03;;;;;;;20.75;100.00;101240.22;5067031;28;20228;-71
2023/06/19 03:12:48;;;;;;;8.97;8.17;;;;;;;20.75;100.00;101229.81;5064701;28;20196;-71
2023/06/19 03:15:14;;;;;;;9.73;8.90;;;;;;;20.76;100.00;101216.78;5065886;28;20224;-71
2023/06/19 03:17:43;;;;;;;11.03;9.20;;;;;;;20.74;100.00;101225.50;5050226;28;20660;-71
2023/06/19 03:20:12;;;;;;;10.30;9.30;;;;;;;20.74;100.00;101230.69;5061429;28;20202;-72
2023/06/19 03:22:42;;;;;;;11.03;10.03;;;;;;;20.74;100.00;101220.28;5065383;28;20197;-71
2023/06/19 03:25:09;;;;;;;10.97;9.87;;;;;;;20.75;100.00;101224.59;5050428;28;20895;-71
2023/06/19 03:27:36;;;;;;;10.47;9.47;;;;;;;20.76;100.00;101218.50;5060709;28;20200;-71
2023/06/19 03:30:06;;;;;;;10.07;9.17;;;;;;;20.73;100.00;101221.19;5059597;28;20228;-71
2023/06/19 03:32:37;;;;;;;9.93;9.03;;;;;;;20.72;100.00;101224.63;5066630;28;20287;-71
2023/06/19 03:35:05;;;;;;;11.00;10.00;;;;;;;20.70;100.00;101223.81;5063174;28;20251;-71
2023/06/19 03:37:34;;;;;;;10.83;9.40;;;;;;;20.71;100.00;101230.75;5064237;28;20223;-70
2023/06/19 03:40:05;;;;;;;10.40;9.40;;;;;;;20.71;100.00;101226.41;5062435;28;20181;-71
2023/06/19 03:42:34;;;;;;;9.97;9.00;;;;;;;20.69;100.00;101235.13;5066905;28;20192;-71
2023/06/19 03:45:00;;;;;;;10.60;9.50;;;;;;;20.70;100.00;101221.22;5060363;28;20221;-71
2023/06/19 03:47:26;;;;;;;10.57;9.30;;;;;;;20.67;100.00;101229.94;5059910;28;20196;-70
2023/06/19 03:49:51;;;;;;;10.83;9.77;;;;;;;20.67;100.00;101222.13;5081881;28;20699;-72
2023/06/19 03:52:18;;;;;;;10.63;9.67;;;;;;;20.65;100.00;101208.28;5054088;28;20205;-72
2023/06/19 03:54:43;;;;;;;10.03;9.10;;;;;;;20.66;100.00;101211.72;5066799;28;20736;-72
2023/06/19 03:57:09;;;;;;;10.10;9.17;;;;;;;20.66;100.00;101201.31;5064932;28;20423;-70
2023/06/19 03:59:34;;;;;;;12.20;10.30;;;;;;;20.67;100.00;101203.03;5061780;28;20294;-72
2023/06/19 04:02:00;;;;;;;10.70;9.60;;;;;;;20.68;100.00;101207.38;5080105;28;20281;-72
2023/06/19 04:04:25;;;;;;;10.63;9.60;;;;;;;20.68;100.00;101200.41;5066741;28;20247;-72
2023/06/19 04:06:51;;;;;;;10.87;9.87;;;;;;;20.65;100.00;101189.19;5068613;28;20200;-72
2023/06/19 04:09:16;;;;;;;10.70;9.77;;;;;;;20.67;100.00;101197.81;5063099;28;20224;-72
2023/06/19 04:11:42;;;;;;;10.40;9.43;;;;;;;20.68;100.00;101189.16;5080135;28;20886;-73
2023/06/19 04:14:07;;;;;;;9.97;9.10;;;;;;;20.67;100.00;101175.28;5063467;28;20595;-70
2023/06/19 04:16:33;;;;;;;9.83;8.93;;;;;;;20.68;100.00;101171.78;5058232;28;20818;-72
2023/06/19 04:18:58;;;;;;;11.33;10.27;;;;;;;20.71;100.00;101166.53;5064112;28;20197;-71
2023/06/19 04:21:24;;;;;;;11.03;9.93;;;;;;;20.72;100.00;101164.75;5063984;28;20680;-70
2023/06/19 04:23:50;;;;;;;10.63;9.57;;;;;;;20.74;100.00;101148.25;5064678;28;20219;-71
2023/06/19 04:26:15;;;;;;;10.83;9.80;;;;;;;20.73;100.00;101161.31;5064780;28;20824;-72
2023/06/19 04:28:41;;;;;;;11.00;9.73;;;;;;;20.73;100.00;101154.31;5065451;28;20638;-72
2023/06/19 04:31:07;;;;;;;11.30;9.37;;;;;;;20.74;100.00;101170.81;5061305;28;20191;-71
2023/06/19 04:33:32;;;;;;;12.87;9.70;;;;;;;20.77;100.00;101169.03;5058573;28;20569;-70
2023/06/19 04:35:58;;;;;;;10.70;9.63;;;;;;;20.78;100.00;101156.88;5062963;28;20220;-72
2023/06/19 04:38:24;;;;;;;10.40;9.33;;;;;;;20.78;100.00;101155.09;5063968;28;20199;-72
2023/06/19 04:40:52;;;;;;;10.00;9.10;;;;;;;20.77;100.00;101153.41;5065648;28;20689;-71
2023/06/19 04:43:18;;;;;;;11.20;10.10;;;;;;;20.80;100.00;101155.97;5078636;28;20734;-72
2023/06/19 04:45:44;;;;;;;10.17;9.23;;;;;;;20.78;100.00;101183.75;5083471;28;20295;-72
2023/06/19 04:48:09;;;;;;;10.23;9.33;;;;;;;20.75;100.00;101182.94;5060800;28;20185;-72
2023/06/19 04:50:35;;;;;;;10.20;9.20;;;;;;;20.77;100.00;101166.41;5060144;28;20686;-71
2023/06/19 04:53:00;;;;;;;11.00;9.97;;;;;;;20.79;100.00;101156.84;5059417;28;20235;-72
2023/06/19 04:55:26;;;;;;;10.80;9.80;;;;;;;20.79;100.00;101146.44;5062072;28;20205;-71
2023/06/19 04:57:52;;;;;;;9.77;8.87;;;;;;;20.80;100.00;101149.88;5062662;28;20189;-71
2023/06/19 05:00:19;;;;;;;12.13;10.27;;;;;;;20.78;100.00;101152.50;5056285;28;20697;-71
2023/06/19 05:02:47;;;;;;;11.03;10.00;;;;;;;20.78;100.00;101143.84;5062099;28;20224;-72
2023/06/19 05:05:13;;;;;;;12.83;9.57;;;;;;;20.82;100.00;101135.94;5067539;28;20216;-72
2023/06/19 05:07:38;;;;;;;10.83;9.70;;;;;;;20.83;100.00;101149.84;5062827;28;20197;-71
2023/06/19 05:10:04;;;;;;;13.23;8.90;;;;;;;20.83;100.00;101153.28;5060179;28;20629;-72
2023/06/19 05:12:30;;;;;;;10.17;9.27;;;;;;;20.80;100.00;101157.69;5064175;28;20243;-72
2023/06/19 05:14:55;;;;;;;10.70;9.60;;;;;;;20.78;100.00;101149.91;5058277;28;20217;-71
2023/06/19 05:17:21;;;;;;;10.80;9.80;;;;;;;20.79;100.00;101154.25;5061070;28;20587;-71
2023/06/19 05:19:46;;;;;;;11.30;10.20;;;;;;;20.80;100.00;101162.91;5065789;28;20272;-72
2023/06/19 05:22:12;;;;;;;12.00;9.97;;;;;;;20.81;100.00;101154.19;5063452;28;20196;-71
2023/06/19 05:24:37;;;;;;;10.87;9.77;;;;;;;20.84;100.00;101148.94;5061332;28;20221;-70
2023/06/19 05:27:03;;;;;;;11.30;10.20;;;;;;;20.80;100.00;101160.28;5062918;28;20201;-72
2023/06/19 05:29:30;;;;;;;11.00;9.90;;;;;;;20.80;100.00;101149.88;5060865;28;20616;-73
2023/06/19 05:31:56;;;;;;;10.73;9.57;;;;;;;20.77;100.00;101148.19;5064724;28;20193;-72
2023/06/19 05:34:22;;;;;;;11.07;9.97;;;;;;;20.83;100.00;101134.22;5060587;28;20223;-71
2023/06/19 05:36:47;;;;;;;10.87;9.80;;;;;;;20.84;100.00;101142.00;5058492;28;20209;-71
2023/06/19 05:39:13;;;;;;;14.60;10.40;;;;;;;20.86;100.00;101142.81;5064807;28;20197;-73
2023/06/19 05:41:39;;;;;;;11.50;10.47;;;;;;;20.88;100.00;101159.31;5059440;28;20202;-73
2023/06/19 05:44:04;;;;;;;11.23;10.10;;;;;;;20.90;100.00;101139.31;5062688;28;20299;-72
2023/06/19 05:46:29;;;;;;;11.33;10.33;;;;;;;20.93;100.00;101141.00;5066994;28;20189;-72
2023/06/19 05:48:55;;;;;;;11.80;10.10;;;;;;;20.90;100.00;101147.13;5061559;28;20209;-72
2023/06/19 05:51:20;;;;;;;13.23;10.23;;;;;;;20.93;100.00;101154.91;5059548;28;20224;-72
2023/06/19 05:53:46;;;;;;;12.40;10.17;;;;;;;20.93;100.00;101172.25;5064346;28;20275;-71
2023/06/19 05:56:12;;;;;;;13.10;10.07;;;;;;;20.94;100.00;101182.66;5061141;28;20726;-71
2023/06/19 05:58:38;;;;;;;10.90;9.90;;;;;;;20.91;100.00;101187.91;5061105;28;20209;-70
2023/06/19 06:01:04;;;;;;;11.40;10.33;;;;;;;20.93;100.00;101193.09;5065081;28;20225;-72
2023/06/19 06:03:30;;;;;;;12.33;10.80;;;;;;;20.90;100.00;101203.53;5062190;28;20234;-71
2023/06/19 06:06:02;;;;;;;12.97;10.10;;;;;;;20.89;100.00;101218.31;5067259;28;20235;-72
2023/06/19 06:08:31;;;;;;;12.67;11.43;;;;;;;20.91;100.00;101216.53;5062298;28;20223;-72
2023/06/19 06:10:56;;;;;;;11.37;10.27;;;;;;;20.88;100.00;101237.41;5063630;28;20201;-72
2023/06/19 06:13:22;;;;;;;11.27;10.23;;;;;;;20.92;100.00;101240.84;5063512;28;20190;-72
2023/06/19 06:15:47;;;;;;;12.43;10.97;;;;;;;20.94;100.00;101239.06;5060729;28;20690;-69
2023/06/19 06:18:13;;;;;;;11.67;10.57;;;;;;;20.95;100.00;101248.59;5048715;28;20213;-72
2023/06/19 06:20:39;;;;;;;13.27;11.87;;;;;;;20.93;100.00;101256.47;5068109;28;20196;-72
2023/06/19 06:23:04;;;;;;;13.10;11.80;;;;;;;20.91;100.00;101273.84;5065084;28;20193;-72
2023/06/19 06:25:30;;;;;;;13.17;11.60;;;;;;;20.75;100.00;101277.53;5062988;28;20224;-70
2023/06/19 06:27:55;;;;;;;12.60;11.27;;;;;;;20.82;100.00;101280.91;5064913;28;20205;-72
2023/06/19 06:30:21;;;;;;;11.70;10.63;;;;;;;20.89;100.00;101272.13;5061607;28;20212;-72
2023/06/19 06:32:46;;;;;;;13.67;11.70;;;;;;;20.93;100.00;101269.50;5063719;28;20279;-72
2023/06/19 06:35:12;;;;;;;12.77;11.43;;;;;;;20.98;100.00;101262.47;5059906;28;20220;-72
2023/06/19 06:37:37;;;;;;;12.87;11.67;;;;;;;21.00;100.00;101263.28;5059894;28;20201;-72
2023/06/19 06:40:09;;;;;;;13.73;11.73;;;;;;;21.04;100.00;101264.94;5052840;28;20193;-72
2023/06/19 06:42:34;;;;;;;11.73;10.73;;;;;;;21.03;100.00;101260.63;5066145;28;20262;-72
2023/06/19 06:45:00;;;;;;;14.27;11.07;;;;;;;21.06;100.00;101250.13;5065571;28;20224;-73
2023/06/19 06:47:25;;;;;;;12.70;11.43;;;;;;;21.05;100.00;101266.66;5064625;28;20211;-73
2023/06/19 06:49:51;;;;;;;12.30;11.10;;;;;;;21.09;100.00;101247.50;5062578;28;20218;-71
2023/06/19 06:52:16;;;;;;;12.80;11.50;;;;;;;21.09;100.00;101237.06;5062819;28;20919;-73
2023/06/19 06:54:41;;;;;;;12.43;11.27;;;;;;;21.17;100.00;101263.00;5065861;28;20220;-72
2023/06/19 06:57:07;;;;;;;12.37;11.27;;;;;;;21.20;100.00;101249.94;5062931;28;20189;-71
2023/06/19 06:59:33;;;;;;;13.00;11.80;;;;;;;21.22;100.00;101261.16;5063553;28;20562;-71
2023/06/19 07:01:58;;;;;;;13.13;11.63;;;;;;;21.19;100.00;101235.19;5063560;28;20200;-71
2023/06/19 07:04:24;;;;;;;13.40;11.03;;;;;;;21.24;100.00;101225.53;5062638;28;20212;-72
2023/06/19 07:06:49;;;;;;;13.03;11.77;;;;;;;21.26;100.00;101223.75;5064026;28;20689;-71
2023/06/19 07:09:15;;;;;;;12.70;11.40;;;;;;;21.29;100.00;101236.75;5047782;28;20256;-74
2023/06/19 07:11:40;;;;;;;12.37;11.17;;;;;;;21.32;100.00;101241.88;5062797;28;20221;-71
2023/06/19 07:14:06;;;;;;;12.87;11.63;;;;;;;21.32;100.00;101236.66;5061613;28;20621;-71
2023/06/19 07:16:31;;;;;;;12.47;11.37;;;;;;;21.28;100.00;101195.94;5059760;28;20239;-72
2023/06/19 07:18:57;;;;;;;12.97;11.77;;;;;;;21.27;100.00;101178.56;5059672;28;20213;-71
2023/06/19 07:21:22;;;;;;;12.70;11.47;;;;;;;21.26;100.00;101179.47;5064080;28;20276;-72
2023/06/19 07:23:48;;;;;;;13.30;11.90;;;;;;;21.25;100.00;101160.38;5061062;28;20190;-72
2023/06/19 07:26:14;;;;;;;13.17;11.87;;;;;;;21.29;100.00;101150.75;5064205;28;20240;-72
2023/06/19 07:28:40;;;;;;;12.17;11.07;;;;;;;21.33;100.00;101152.41;5062446;28;20347;-71
2023/06/19 07:31:05;;;;;;;16.47;11.90;;;;;;;21.34;100.00;101154.13;5054302;28;20205;-71
2023/06/19 07:33:31;;;;;;;12.87;11.67;;;;;;;21.45;100.00;101149.53;5060413;28;20332;-71
2023/06/19 07:35:56;;;;;;;12.67;11.63;;;;;;;21.49;100.00;101151.19;5064459;28;20244;-72
2023/06/19 07:38:22;;;;;;;15.87;12.00;;;;;;;21.49;100.00;101164.22;5063636;28;20251;-71
2023/06/19 07:40:48;;;;;;;12.03;10.97;;;;;;;21.49;100.00;101153.81;5067114;28;20197;-72
2023/06/19 07:43:13;;;;;;;13.93;11.87;;;;;;;21.54;100.00;101144.16;5061866;28;20227;-71
2023/06/19 07:45:39;;;;;;;12.97;11.77;;;;;;;21.48;100.00;101159.91;5057225;28;20220;-68
2023/06/19 07:48:04;;;;;;;13.40;12.10;;;;;;;21.65;100.00;101163.06;5062275;28;20280;-71
2023/06/19 07:50:31;;;;;;;12.47;11.27;;;;;;;21.64;100.00;101175.22;5064402;28;20296;-72
2023/06/19 07:52:57;;;;;;;13.27;11.93;;;;;;;21.80;100.00;101173.19;5066455;28;20201;-71
2023/06/19 07:55:23;;;;;;;13.67;11.53;;;;;;;21.78;100.00;101186.25;5062007;28;20216;-71
2023/06/19 07:57:48;;;;;;;14.27;12.73;;;;;;;21.85;100.00;101185.25;5062188;28;20280;-72
2023/06/19 08:00:14;;;;;;;13.20;11.90;;;;;;;22.02;100.00;101177.06;5057445;28;20229;-72
2023/06/19 08:02:40;;;;;;;13.13;11.83;;;;;;;22.15;100.00;101158.47;5061702;28;20205;-72
2023/06/19 08:05:10;;;;;;;14.57;12.30;;;;;;;22.24;100.00;101160.88;5056906;28;20225;-73
2023/06/19 08:07:36;;;;;;;12.73;11.53;;;;;;;22.33;100.00;101146.75;5058385;28;20197;-71
2023/06/19 08:10:03;;;;;;;12.80;11.53;;;;;;;22.30;100.00;101146.84;5060866;28;20221;-72
2023/06/19 08:12:30;;;;;;;14.07;12.20;;;;;;;22.51;100.00;101142.88;5056549;28;20285;-73
2023/06/19 08:14:55;;;;;;;14.07;11.77;;;;;;;22.72;100.00;101137.13;5064194;28;20303;-72
2023/06/19 08:17:20;;;;;;;12.47;11.47;;;;;;;22.77;100.00;101112.59;5058375;28;20276;-73
2023/06/19 08:19:46;;;;;;;13.03;11.57;;;;;;;22.84;100.00;101131.59;5058691;28;20553;-70
2023/06/19 08:22:11;;;;;;;13.33;12.03;;;;;;;22.89;100.00;101111.41;5059166;28;20224;-73
2023/06/19 08:24:38;;;;;;;12.63;11.43;;;;;;;22.96;100.00;101095.53;5057996;28;20221;-73
2023/06/19 08:27:04;;;;;;;13.17;11.87;;;;;;;23.04;100.00;101093.59;5061419;28;20203;-73
2023/06/19 08:29:29;;;;;;;13.27;12.07;;;;;;;23.10;100.00;101093.41;5058809;28;20814;-72
2023/06/19 08:31:55;;;;;;;12.70;11.60;;;;;;;23.07;100.00;101101.31;5056319;28;20259;-70
2023/06/19 08:34:20;;;;;;;12.73;11.47;;;;;;;23.26;100.00;101080.78;5058816;28;20225;-70
2023/06/19 08:36:46;;;;;;;12.73;11.60;;;;;;;23.38;100.00;101075.22;5057662;28;20244;-71
2023/06/19 08:39:11;;;;;;;13.43;11.60;;;;;;;23.49;100.00;101066.16;5061421;28;20196;-71
2023/06/19 08:41:38;;;;;;;12.13;11.03;;;;;;;23.78;100.00;101046.94;5056412;28;20206;-71
2023/06/19 08:44:04;;;;;;;14.30;10.93;;;;;;;23.84;100.00;101039.75;5058953;28;20476;-70
2023/06/19 08:46:30;;;;;;;11.00;9.90;;;;;;;23.96;100.00;101022.84;5062004;28;20201;-70
2023/06/19 08:48:56;;;;;;;12.00;10.83;;;;;;;24.13;100.00;101012.69;5055229;28;20213;-69
2023/06/19 08:51:22;;;;;;;13.18;11.75;;;;;;;24.04;100.00;101016.44;5058792;28;20616;-71
2023/06/19 08:53:56;;;;;;;12.73;11.53;;;;;;;24.16;100.00;101047.47;5055280;28;20190;-69
2023/06/19 08:56:21;;;;;;;12.85;11.75;;;;;;;24.24;100.00;101019.28;5059996;28;20720;-71
2023/06/19 08:58:47;;;;;;;11.40;10.32;;;;;;;24.52;100.00;101022.66;5062174;28;20197;-71
2023/06/19 09:01:19;;;;;;;11.90;10.80;;;;;;;24.82;100.00;101018.97;5058869;28;20216;-71
2023/06/19 09:03:46;;;;;;;12.27;11.07;;;;;;;25.35;94.89;100977.69;5058432;28;20204;-71
2023/06/19 09:06:16;;;;;;;13.07;11.52;;;;;;;25.27;94.00;100977.16;5063575;28;20208;-70
2023/06/19 09:08:41;;;;;;;11.50;10.48;;;;;;;25.12;96.64;101007.38;5062143;28;20737;-71
2023/06/19 09:11:07;;;;;;;11.57;10.52;;;;;;;25.52;92.40;100967.41;5060309;28;20189;-70
2023/06/19 09:13:32;;;;;;;11.95;10.40;;;;;;;25.59;92.11;100971.47;5060643;28;20247;-70
2023/06/19 09:16:02;;;;;;;11.07;10.18;;;;;;;25.92;88.13;100957.00;5056359;28;20765;-72
2023/06/19 09:18:42;;;;;;;11.50;10.27;;;;;;;26.17;86.33;100950.69;5063032;28;20325;-70
2023/06/19 09:21:18;;;;;;;11.65;10.50;;;;;;;26.03;83.99;100955.66;5062318;28;20196;-70
2023/06/19 09:23:44;;;;;;;11.52;10.32;;;;;;;26.31;82.05;100950.94;5061939;28;20199;-72
2023/06/19 09:26:10;;;;;;;11.00;9.95;;;;;;;26.15;82.68;100960.38;5057376;28;20993;-73
2023/06/19 09:28:44;;;;;;;12.82;11.05;;;;;;;26.36;83.35;100963.88;5058307;28;20217;-72
2023/06/19 09:31:10;;;;;;;10.93;9.93;;;;;;;26.33;71.92;100920.19;5059484;28;20205;-72
2023/06/19 09:33:37;;;;;;;9.50;8.57;;;;;;;26.43;70.36;100929.38;5066042;28;20210;-72
2023/06/19 09:36:04;;;;;;;10.38;9.40;;;;;;;26.61;67.95;100914.63;5065125;28;20287;-71
2023/06/19 09:38:32;;;;;;;10.10;9.20;;;;;;;26.70;67.67;100920.28;5064165;28;20209;-73
2023/06/19 09:41:01;;;;;;;9.95;8.38;;;;;;;26.71;67.34;100926.41;5055449;28;20193;-72
2023/06/19 09:43:42;;;;;;;13.00;9.65;;;;;;;26.65;65.94;100930.16;5060265;28;20217;-72
2023/06/19 09:46:10;;;;;;;10.13;8.38;;;;;;;27.24;62.77;100919.53;5045586;28;20225;-71
2023/06/19 09:48:42;;;;;;;10.32;9.27;;;;;;;27.24;66.22;100953.72;5060955;28;20208;-72
2023/06/19 09:51:23;;;;;;;10.13;9.23;;;;;;;27.66;59.81;100928.84;5066800;28;20225;-72
2023/06/19 09:53:52;;;;;;;9.85;8.90;;;;;;;27.32;60.80;100936.66;5065574;28;21111;-73
2023/06/19 09:56:21;;;;;;;10.73;9.65;;;;;;;27.08;59.70;100942.19;5063278;28;20219;-69
2023/06/19 09:58:49;;;;;;;10.20;9.20;;;;;;;27.16;60.41;100943.53;5066280;28;20189;-72
2023/06/19 10:01:18;;;;;;;11.13;10.02;;;;;;;27.41;58.71;100924.84;5063028;28;20201;-72
2023/06/19 10:03:44;;;;;;;9.60;8.70;;;;;;;27.45;59.59;100939.56;5068364;28;20196;-71
2023/06/19 10:06:18;;;;;;;11.05;9.57;;;;;;;27.35;62.27;100954.09;5063106;28;20776;-71
2023/06/19 10:08:45;;;;;;;12.30;9.82;;;;;;;27.00;63.94;100971.50;5063511;28;20557;-70
2023/06/19 10:11:11;;;;;;;10.68;9.65;;;;;;;27.39;62.55;100958.25;5064471;28;20600;-71
2023/06/19 10:13:39;;;;;;;11.38;10.13;;;;;;;27.28;62.38;100953.53;5061910;28;20210;-71
2023/06/19 10:16:05;;;;;;;10.63;9.73;;;;;;;27.47;64.15;100962.25;5065701;28;20216;-71
2023/06/19 10:18:32;;;;;;;11.10;10.10;;;;;;;27.78;60.22;100928.25;5067792;28;20680;-71
2023/06/19 10:20:58;;;;;;;10.88;9.88;;;;;;;27.73;61.67;100950.44;5068378;28;20209;-71
2023/06/19 10:23:26;;;;;;;10.82;9.82;;;;;;;28.39;60.29;100933.88;5063981;28;20255;-71
2023/06/19 10:25:56;;;;;;;10.73;9.77;;;;;;;28.07;61.15;100943.44;5064299;28;20219;-71
2023/06/19 10:28:28;;;;;;;10.55;9.50;;;;;;;28.31;60.67;100941.31;5064947;28;20241;-71
2023/06/19 10:30:55;;;;;;;11.13;10.10;;;;;;;28.00;60.73;100928.88;5062322;28;20184;-71
2023/06/19 10:33:24;;;;;;;15.52;9.73;;;;;;;28.41;61.22;100937.34;5064969;28;20201;-71
2023/06/19 10:35:50;;;;;;;11.48;10.30;;;;;;;28.34;58.83;100922.72;5064673;28;20396;-71
2023/06/19 10:38:16;;;;;;;10.38;9.38;;;;;;;28.21;59.29;100927.78;5065164;28;20202;-72
2023/06/19 10:40:44;;;;;;;11.73;10.13;;;;;;;28.12;57.46;100928.25;5063511;28;20186;-71
2023/06/19 10:43:09;;;;;;;10.52;9.52;;;;;;;27.92;56.87;100917.91;5062369;28;20242;-72
2023/06/19 10:45:35;;;;;;;10.20;9.18;;;;;;;28.35;54.36;100914.75;5048343;28;20220;-70
2023/06/19 10:48:02;;;;;;;12.40;10.02;;;;;;;28.62;54.13;100909.81;5066828;28;20212;-70
2023/06/19 10:50:28;;;;;;;11.07;9.90;;;;;;;28.42;55.63;100945.13;5061012;28;20636;-70
2023/06/19 10:52:56;;;;;;;11.50;9.68;;;;;;;28.52;54.84;100941.13;5062362;28;20200;-70
2023/06/19 10:55:22;;;;;;;11.10;10.07;;;;;;;28.37;55.20;100948.94;5061251;28;20220;-71
2023/06/19 10:57:48;;;;;;;10.95;10.05;;;;;;;28.09;56.96;100970.56;5060046;28;20316;-71
2023/06/19 11:00:27;;;;;;;14.15;10.90;;;;;;;27.92;55.84;100959.16;5068920;28;20193;-71
2023/06/19 11:02:53;;;;;;;11.18;10.13;;;;;;;28.09;56.83;100975.00;5063607;28;20201;-71
2023/06/19 11:05:23;;;;;;;12.05;9.70;;;;;;;28.31;56.93;100960.63;5053735;28;20205;-71
2023/06/19 11:07:57;;;;;;;10.90;9.80;;;;;;;28.32;55.00;100940.41;5064638;28;20635;-71